Terminal Aerodrome Forecast
Issued by NWS

Home | Current Version | Previous Version | Text Only | Print | Product List | Glossary On
Versions: 1 2 3 4 5 6 7 8 9 10 11 12 13 14 15 16 17 18 19
000
FTUS43 KICT 211126
TAFRSL
TAF
KRSL 211126Z 2112/2212 19012KT 1/2SM FG OVC002
     FM211500 18012KT 1SM BR OVC002
     FM211800 19015KT 5SM BR OVC008
     FM212100 19015G20KT P6SM BKN012
     FM220900 23010KT P6SM BKN025=

USA.gov is the U.S. government's official web portal to all federal, state and local government web resources and services.